Terminal Aerodrome Forecast
Issued by NWS

Home | Current Version | Previous Version | Text Only | Print | Product List | Glossary On
Versions: 1 2 3 4 5 6 7 8 9 10 11 12 13 14 15 16 17 18 19
174
FTUS43 KJKL 230456 AAA
TAFSME
TAF AMD
KSME 230456Z 2305/2324 03009KT P6SM VCSH OVC007
     FM231400 04009KT P6SM -SHRA OVC010
     FM231500 04009KT P6SM -SHRA OVC008
     FM232300 04007KT P6SM OVC003=

USA.gov is the U.S. government's official web portal to all federal, state and local government web resources and services.